createdAt,value
2023-01-07T00:01:13.815Z,3.60
2023-01-07T00:03:40.747Z,3.60
2023-01-07T00:06:18.948Z,4.90
2023-01-07T00:08:47.256Z,3.15
2023-01-07T00:11:18.222Z,2.80
2023-01-07T00:13:45.113Z,3.50
2023-01-07T00:16:14.651Z,3.20
2023-01-07T00:18:41.719Z,3.20
2023-01-07T00:21:11.671Z,3.80
2023-01-07T00:23:39.256Z,2.80
2023-01-07T00:26:18.901Z,2.95
2023-01-07T00:28:46.707Z,3.15
2023-01-07T00:31:23.021Z,2.75
2023-01-07T00:33:59.131Z,4.25
2023-01-07T00:36:27.352Z,4.03
2023-01-07T00:38:58.407Z,2.40
2023-01-07T00:41:24.819Z,2.90
2023-01-07T00:43:51.785Z,2.40
2023-01-07T00:46:18.924Z,3.67
2023-01-07T00:48:45.304Z,3.03
2023-01-07T00:51:13.632Z,3.95
2023-01-07T00:53:39.989Z,2.53
2023-01-07T00:56:06.617Z,2.47
2023-01-07T00:58:32.970Z,2.75
2023-01-07T01:01:02.027Z,2.30
2023-01-07T01:03:29.783Z,2.47
2023-01-07T01:06:02.210Z,2.60
2023-01-07T01:08:28.601Z,2.78
2023-01-07T01:10:55.507Z,4.25
2023-01-07T01:13:22.057Z,2.80
2023-01-07T01:15:48.930Z,2.05
2023-01-07T01:18:16.127Z,2.20
2023-01-07T01:20:43.234Z,2.28
2023-01-07T01:23:09.638Z,2.30
2023-01-07T01:25:36.422Z,2.33
2023-01-07T01:28:02.848Z,2.38
2023-01-07T01:30:29.715Z,2.67
2023-01-07T01:32:56.089Z,2.20
2023-01-07T01:35:22.801Z,3.17
2023-01-07T01:37:49.519Z,1.98
2023-01-07T01:40:16.772Z,3.13
2023-01-07T01:42:43.873Z,2.70
2023-01-07T01:45:11.780Z,2.30
2023-01-07T01:47:48.198Z,4.32
2023-01-07T01:50:25.329Z,2.90
2023-01-07T01:53:00.793Z,2.47
2023-01-07T01:55:32.200Z,2.50
2023-01-07T01:58:02.410Z,3.25
2023-01-07T02:00:29.342Z,3.25
2023-01-07T02:02:57.160Z,3.13
2023-01-07T02:05:31.864Z,2.53
2023-01-07T02:08:01.328Z,3.95
2023-01-07T02:10:28.626Z,2.72
2023-01-07T02:13:22.341Z,2.25
2023-01-07T02:16:00.902Z,3.08
2023-01-07T02:19:05.375Z,3.00
2023-01-07T02:21:53.596Z,3.22
2023-01-07T02:24:38.504Z,3.40
2023-01-07T02:27:23.408Z,4.20
2023-01-07T02:30:31.676Z,3.20
2023-01-07T02:33:08.974Z,4.68
2023-01-07T02:36:00.731Z,4.13
2023-01-07T02:38:35.530Z,3.80
2023-01-07T02:41:09.380Z,3.42
2023-01-07T02:43:57.211Z,4.13
2023-01-07T02:46:44.501Z,3.25
2023-01-07T02:49:15.291Z,3.03
2023-01-07T02:51:42.906Z,2.63
2023-01-07T02:54:13.643Z,3.13
2023-01-07T02:56:56.759Z,2.80
2023-01-07T02:59:45.910Z,2.75
2023-01-07T03:02:19.395Z,3.13
2023-01-07T03:05:08.890Z,3.65
2023-01-07T03:07:45.987Z,3.20
2023-01-07T03:10:25.816Z,3.00
2023-01-07T03:12:58.221Z,3.15
2023-01-07T03:15:30.985Z,4.65
2023-01-07T03:18:05.203Z,3.08
2023-01-07T03:20:33.964Z,3.75
2023-01-07T03:23:01.336Z,3.42
2023-01-07T03:25:30.786Z,3.42
2023-01-07T03:27:58.609Z,3.80
2023-01-07T03:30:25.177Z,3.47
2023-01-07T03:33:11.277Z,4.72
2023-01-07T03:35:39.146Z,3.10
2023-01-07T03:38:06.293Z,3.55
2023-01-07T03:40:32.647Z,4.88
2023-01-07T03:42:59.567Z,3.58
2023-01-07T03:45:26.837Z,4.00
2023-01-07T03:47:55.432Z,4.50
2023-01-07T03:50:22.397Z,4.72
2023-01-07T03:52:49.080Z,3.30
2023-01-07T03:55:15.430Z,3.70
2023-01-07T03:57:41.811Z,3.63
2023-01-07T04:00:09.895Z,3.72
2023-01-07T04:02:36.771Z,4.00
2023-01-07T04:05:03.305Z,5.40
2023-01-07T04:07:29.636Z,3.60
2023-01-07T04:09:56.055Z,4.60
2023-01-07T04:12:22.526Z,3.58
2023-01-07T04:14:48.897Z,4.07
2023-01-07T04:17:15.285Z,4.50
2023-01-07T04:19:41.605Z,5.20
2023-01-07T04:22:10.216Z,3.38
2023-01-07T04:24:36.607Z,3.40
2023-01-07T04:27:03.522Z,5.25
2023-01-07T04:29:30.458Z,3.88
2023-01-07T04:31:56.994Z,4.22
2023-01-07T04:34:23.677Z,4.03
2023-01-07T04:36:50.072Z,3.75
2023-01-07T04:39:17.754Z,3.25
2023-01-07T04:41:44.332Z,4.90
2023-01-07T04:44:10.887Z,3.65
2023-01-07T04:46:37.360Z,3.90
2023-01-07T04:49:03.768Z,3.53
2023-01-07T04:51:30.224Z,4.35
2023-01-07T04:53:58.260Z,6.03
2023-01-07T04:56:24.622Z,5.72
2023-01-07T04:58:50.981Z,5.07
2023-01-07T05:01:17.418Z,3.50
2023-01-07T05:03:43.823Z,4.35
2023-01-07T05:06:10.191Z,3.83
2023-01-07T05:08:36.521Z,3.55
2023-01-07T05:11:04.766Z,4.05
2023-01-07T05:13:32.016Z,3.67
2023-01-07T05:15:58.444Z,3.85
2023-01-07T05:18:24.861Z,4.00
2023-01-07T05:20:51.281Z,3.85
2023-01-07T05:23:17.699Z,4.95
2023-01-07T05:25:44.142Z,4.03
2023-01-07T05:28:11.936Z,5.00
2023-01-07T05:30:39.383Z,4.00
2023-01-07T05:33:07.253Z,4.38
2023-01-07T05:35:34.820Z,4.03
2023-01-07T05:38:01.244Z,7.15
2023-01-07T05:40:27.595Z,5.00
2023-01-07T05:42:54.162Z,4.30
2023-01-07T05:45:21.783Z,3.90
2023-01-07T05:47:48.591Z,3.70
2023-01-07T05:50:15.224Z,4.65
2023-01-07T05:52:41.591Z,4.13
2023-01-07T05:55:08.555Z,4.25
2023-01-07T05:57:34.933Z,4.13
2023-01-07T06:00:01.278Z,4.93
2023-01-07T06:02:27.630Z,3.75
2023-01-07T06:04:54.019Z,3.78
2023-01-07T06:07:20.412Z,4.50
2023-01-07T06:09:46.796Z,3.88
2023-01-07T06:12:13.182Z,3.55
2023-01-07T06:14:39.578Z,4.13
2023-01-07T06:17:05.992Z,3.90
2023-01-07T06:19:32.426Z,4.95
2023-01-07T06:21:59.450Z,4.05
2023-01-07T06:24:25.866Z,3.47
2023-01-07T06:26:52.237Z,4.88
2023-01-07T06:29:18.662Z,3.85
2023-01-07T06:31:45.044Z,3.50
2023-01-07T06:34:11.434Z,5.40
2023-01-07T06:36:37.786Z,4.30
2023-01-07T06:39:04.229Z,4.30
2023-01-07T06:41:30.682Z,5.18
2023-01-07T06:43:57.070Z,4.10
2023-01-07T06:46:23.579Z,6.35
2023-01-07T06:48:49.996Z,6.80
2023-01-07T06:51:16.414Z,4.90
2023-01-07T06:53:42.789Z,4.47
2023-01-07T06:56:09.285Z,5.72
2023-01-07T06:58:35.678Z,4.78
2023-01-07T07:01:08.522Z,5.00
2023-01-07T07:03:35.028Z,7.35
2023-01-07T07:06:01.599Z,5.63
2023-01-07T07:08:28.105Z,4.68
2023-01-07T07:10:54.444Z,5.03
2023-01-07T07:13:20.837Z,5.03
2023-01-07T07:15:47.533Z,5.00
2023-01-07T07:18:14.011Z,4.60
2023-01-07T07:20:40.407Z,4.20
2023-01-07T07:23:06.826Z,4.20
2023-01-07T07:25:33.389Z,4.43
2023-01-07T07:27:59.752Z,5.70
2023-01-07T07:30:47.422Z,4.43
2023-01-07T07:33:14.755Z,3.92
2023-01-07T07:35:41.194Z,4.40
2023-01-07T07:38:07.599Z,3.97
2023-01-07T07:40:33.966Z,5.07
2023-01-07T07:43:11.215Z,4.78
2023-01-07T07:45:39.395Z,4.43
2023-01-07T07:48:07.314Z,4.07
2023-01-07T07:50:34.218Z,5.72
2023-01-07T07:53:00.577Z,4.45
2023-01-07T07:55:27.035Z,3.83
2023-01-07T07:57:54.567Z,3.47
2023-01-07T08:00:20.959Z,4.55
2023-01-07T08:02:47.348Z,4.90
2023-01-07T08:05:13.766Z,5.20
2023-01-07T08:07:40.126Z,5.50
2023-01-07T08:10:07.135Z,5.05
2023-01-07T08:12:37.760Z,7.07
2023-01-07T08:15:06.119Z,5.35
2023-01-07T08:17:32.483Z,6.05
2023-01-07T08:19:58.884Z,5.38
2023-01-07T08:22:25.231Z,5.15
2023-01-07T08:24:51.689Z,4.65
2023-01-07T08:27:18.068Z,6.30
2023-01-07T08:29:45.118Z,5.68
2023-01-07T08:32:11.460Z,5.05
2023-01-07T08:34:37.837Z,4.45
2023-01-07T08:37:04.163Z,5.60
2023-01-07T08:39:30.483Z,4.57
2023-01-07T08:41:56.813Z,5.45
2023-01-07T08:44:23.148Z,5.30
2023-01-07T08:46:49.604Z,5.93
2023-01-07T08:49:15.969Z,5.30
2023-01-07T08:51:42.306Z,5.80
2023-01-07T08:54:08.637Z,6.43
2023-01-07T08:56:35.055Z,5.22
2023-01-07T08:59:01.406Z,5.38
2023-01-07T09:01:27.881Z,5.80
2023-01-07T09:03:54.324Z,7.30
2023-01-07T09:06:21.727Z,5.40
2023-01-07T09:08:48.114Z,5.40
2023-01-07T09:11:14.519Z,5.28
2023-01-07T09:13:40.889Z,5.03
2023-01-07T09:16:07.617Z,4.30
2023-01-07T09:18:34.297Z,4.90
2023-01-07T09:21:01.128Z,5.78
2023-01-07T09:23:27.513Z,4.38
2023-01-07T09:25:53.906Z,4.53
2023-01-07T09:28:20.275Z,3.47
2023-01-07T09:30:46.636Z,5.80
2023-01-07T09:33:13.019Z,2.58
2023-01-07T09:35:39.363Z,2.72
2023-01-07T09:38:05.749Z,3.58
2023-01-07T09:40:40.152Z,2.67
2023-01-07T09:43:17.624Z,3.17
2023-01-07T09:45:47.613Z,3.50
2023-01-07T09:48:35.567Z,2.15
2023-01-07T09:51:05.276Z,3.05
2023-01-07T09:53:37.657Z,2.45
2023-01-07T09:56:12.822Z,2.25
2023-01-07T09:58:41.583Z,2.63
2023-01-07T10:01:23.238Z,2.15
2023-01-07T10:04:06.558Z,4.63
2023-01-07T10:06:43.612Z,4.55
2023-01-07T10:09:16.488Z,2.28
2023-01-07T10:11:49.360Z,1.83
2023-01-07T10:14:40.176Z,2.85
2023-01-07T10:18:10.458Z,1.90
2023-01-07T10:20:54.652Z,3.00
2023-01-07T10:23:25.914Z,3.08
2023-01-07T10:25:54.384Z,3.72
2023-01-07T10:28:36.190Z,2.35
2023-01-07T10:31:03.613Z,2.15
2023-01-07T10:33:32.913Z,2.50
2023-01-07T10:36:28.249Z,3.55
2023-01-07T10:39:18.314Z,1.20
2023-01-07T10:42:01.465Z,2.10
2023-01-07T10:45:01.448Z,1.83
2023-01-07T10:47:46.381Z,1.30
2023-01-07T10:50:39.636Z,2.55
2023-01-07T10:53:19.367Z,1.60
2023-01-07T10:56:10.394Z,2.17
2023-01-07T10:58:40.337Z,1.80
2023-01-07T11:01:07.599Z,1.30
2023-01-07T11:03:34.250Z,1.40
2023-01-07T11:06:05.065Z,1.50
2023-01-07T11:08:42.221Z,2.03
2023-01-07T11:11:15.475Z,1.55
2023-01-07T11:13:43.345Z,1.60
2023-01-07T11:16:13.084Z,1.70
2023-01-07T11:19:04.868Z,1.38
2023-01-07T11:21:42.993Z,1.40
2023-01-07T11:24:19.032Z,1.48
2023-01-07T11:26:46.133Z,4.95
2023-01-07T11:29:22.401Z,1.10
2023-01-07T11:31:56.739Z,1.48
2023-01-07T11:34:37.530Z,1.63
2023-01-07T11:37:04.884Z,5.32
2023-01-07T11:39:34.687Z,1.20
2023-01-07T11:42:21.117Z,2.25
2023-01-07T11:44:47.663Z,1.70
2023-01-07T11:47:16.199Z,1.40
2023-01-07T11:49:44.893Z,1.40
2023-01-07T11:52:22.439Z,1.38
2023-01-07T11:54:51.941Z,2.47
2023-01-07T11:57:24.197Z,4.25
2023-01-07T12:00:13.585Z,2.65
2023-01-07T12:02:40.144Z,1.55
2023-01-07T12:05:17.403Z,1.20
2023-01-07T12:07:48.531Z,1.48
2023-01-07T12:10:30.284Z,1.45
2023-01-07T12:12:58.161Z,1.90
2023-01-07T12:15:27.470Z,1.30
2023-01-07T12:18:09.703Z,1.88
2023-01-07T12:20:46.780Z,1.42
2023-01-07T12:23:33.766Z,1.42
2023-01-07T12:26:16.970Z,1.38
2023-01-07T12:28:55.184Z,1.48
2023-01-07T12:31:21.681Z,1.40
2023-01-07T12:34:09.404Z,4.68
2023-01-07T12:36:48.149Z,1.95
2023-01-07T12:39:29.351Z,1.88
2023-01-07T12:42:09.409Z,1.42
2023-01-07T12:44:42.192Z,2.03
2023-01-07T12:47:31.973Z,2.35
2023-01-07T12:50:24.581Z,1.50
2023-01-07T12:53:07.587Z,1.65
2023-01-07T12:55:37.013Z,6.63
2023-01-07T12:58:06.423Z,1.83
2023-01-07T13:00:43.067Z,2.28
2023-01-07T13:03:19.163Z,2.13
2023-01-07T13:05:52.138Z,1.77
2023-01-07T13:08:23.602Z,2.50
2023-01-07T13:11:20.313Z,3.45
2023-01-07T13:13:52.862Z,1.75
2023-01-07T13:16:20.043Z,1.92
2023-01-07T13:18:46.455Z,2.90
2023-01-07T13:21:15.192Z,1.70
2023-01-07T13:23:58.747Z,2.30
2023-01-07T13:26:47.020Z,1.70
2023-01-07T13:29:28.827Z,1.40
2023-01-07T13:32:13.908Z,2.53
2023-01-07T13:35:12.286Z,1.50
2023-01-07T13:38:03.467Z,1.88
2023-01-07T13:40:51.777Z,2.08
2023-01-07T13:43:47.776Z,1.70
2023-01-07T13:46:18.111Z,1.52
2023-01-07T13:48:50.538Z,3.08
2023-01-07T13:51:26.547Z,2.45
2023-01-07T13:53:53.200Z,1.73
2023-01-07T13:56:19.509Z,2.55
2023-01-07T13:58:53.593Z,1.50
2023-01-07T14:03:50.940Z,2.30
2023-01-07T14:06:20.525Z,1.33
2023-01-07T14:08:53.087Z,4.03
2023-01-07T14:11:38.810Z,1.80
2023-01-07T14:14:26.636Z,2.70
2023-01-07T14:17:40.433Z,1.60
2023-01-07T14:20:32.446Z,1.45
2023-01-07T14:23:28.011Z,3.70
2023-01-07T14:26:00.412Z,1.75
2023-01-07T14:29:04.185Z,1.70
2023-01-07T14:31:31.027Z,2.08
2023-01-07T14:34:01.942Z,1.77
2023-01-07T14:37:08.485Z,2.42
2023-01-07T14:39:38.346Z,3.08
2023-01-07T14:42:16.611Z,2.50
2023-01-07T14:44:43.042Z,1.63
2023-01-07T14:47:13.063Z,2.30
2023-01-07T14:50:04.781Z,2.55
2023-01-07T14:52:33.980Z,2.85
2023-01-07T14:55:24.791Z,2.15
2023-01-07T14:58:14.676Z,2.03
2023-01-07T15:01:25.455Z,1.98
2023-01-07T15:03:57.598Z,2.17
2023-01-07T15:06:26.569Z,2.33
2023-01-07T15:09:23.468Z,2.08
2023-01-07T15:12:09.305Z,2.33
2023-01-07T15:15:00.741Z,2.30
2023-01-07T15:17:27.218Z,2.67
2023-01-07T15:19:54.001Z,3.30
2023-01-07T15:22:32.838Z,2.28
2023-01-07T15:25:22.723Z,2.65
2023-01-07T15:27:56.949Z,2.08
2023-01-07T15:33:15.971Z,5.35
2023-01-07T15:35:44.279Z,6.47
2023-01-07T15:38:28.967Z,2.95
2023-01-07T15:40:56.874Z,2.38
2023-01-07T15:43:27.199Z,2.63
2023-01-07T15:46:04.845Z,2.80
2023-01-07T15:48:31.224Z,2.50
2023-01-07T15:50:57.700Z,1.92
2023-01-07T15:53:28.846Z,2.30
2023-01-07T15:56:14.892Z,2.63
2023-01-07T15:58:45.732Z,2.70
2023-01-07T16:01:17.767Z,2.83
2023-01-07T16:03:47.335Z,2.72
2023-01-07T16:06:31.484Z,4.57
2023-01-07T16:08:58.624Z,6.03
2023-01-07T16:11:26.701Z,2.97
2023-01-07T16:14:01.445Z,3.20
2023-01-07T16:16:29.492Z,2.45
2023-01-07T16:18:56.741Z,4.85
2023-01-07T16:21:25.437Z,3.03
2023-01-07T16:23:51.885Z,3.03
2023-01-07T16:26:26.552Z,4.32
2023-01-07T16:28:59.551Z,4.03
2023-01-07T16:31:28.108Z,3.35
2023-01-07T16:33:56.735Z,5.45
2023-01-07T16:36:28.500Z,3.25
2023-01-07T16:38:57.355Z,2.50
2023-01-07T16:41:25.827Z,2.70
2023-01-07T16:43:59.664Z,2.80
2023-01-07T16:46:27.714Z,2.78
2023-01-07T16:49:09.200Z,2.78
2023-01-07T16:51:45.301Z,2.67
2023-01-07T16:54:19.524Z,3.13
2023-01-07T16:56:58.846Z,3.58
2023-01-07T16:59:28.644Z,3.47
2023-01-07T17:01:55.490Z,3.63
2023-01-07T17:04:29.986Z,5.28
2023-01-07T17:06:58.745Z,4.75
2023-01-07T17:09:31.699Z,5.25
2023-01-07T17:11:58.055Z,3.40
2023-01-07T17:14:33.498Z,3.60
2023-01-07T17:17:21.170Z,3.17
2023-01-07T17:19:52.491Z,3.42
2023-01-07T17:22:34.080Z,3.85
2023-01-07T17:25:06.815Z,5.95
2023-01-07T17:27:34.000Z,7.07
2023-01-07T17:30:04.714Z,4.53
2023-01-07T17:32:32.984Z,5.43
2023-01-07T17:35:03.783Z,4.93
2023-01-07T17:37:36.844Z,5.13
2023-01-07T17:40:03.310Z,8.75
2023-01-07T17:42:51.260Z,6.05
2023-01-07T17:45:19.467Z,6.43
2023-01-07T17:47:47.792Z,5.70
2023-01-07T17:50:14.677Z,5.85
2023-01-07T17:52:43.218Z,7.28
2023-01-07T17:55:15.091Z,5.85
2023-01-07T17:57:41.452Z,7.60
2023-01-07T18:00:15.690Z,8.40
2023-01-07T18:02:42.324Z,8.98
2023-01-07T18:05:14.178Z,8.68
2023-01-07T18:07:40.715Z,7.70
2023-01-07T18:10:07.521Z,7.45
2023-01-07T18:12:34.856Z,8.25
2023-01-07T18:15:02.259Z,9.50
2023-01-07T18:17:29.203Z,10.98
2023-01-07T18:19:55.651Z,9.27
2023-01-07T18:22:22.308Z,8.02
2023-01-07T18:24:48.890Z,10.52
2023-01-07T18:27:16.183Z,9.98
2023-01-07T18:29:42.805Z,8.55
2023-01-07T18:32:09.372Z,8.43
2023-01-07T18:34:36.097Z,6.30
2023-01-07T18:37:02.598Z,10.02
2023-01-07T18:39:28.935Z,9.60
2023-01-07T18:41:55.263Z,7.82
2023-01-07T18:44:23.431Z,8.65
2023-01-07T18:46:49.780Z,7.53
2023-01-07T18:49:16.292Z,10.18
2023-01-07T18:51:42.778Z,8.85
2023-01-07T18:54:09.189Z,9.70
2023-01-07T18:56:35.730Z,10.02
2023-01-07T18:59:02.061Z,11.25
2023-01-07T19:01:28.510Z,9.88
2023-01-07T19:03:55.010Z,11.07
2023-01-07T19:06:21.493Z,12.77
2023-01-07T19:08:47.865Z,10.18
2023-01-07T19:11:17.199Z,13.30
2023-01-07T19:13:43.559Z,12.68
2023-01-07T19:16:11.872Z,12.35
2023-01-07T19:18:38.705Z,12.18
2023-01-07T19:21:11.111Z,12.25
2023-01-07T19:23:37.564Z,10.10
2023-01-07T19:26:06.630Z,10.43
2023-01-07T19:28:33.012Z,8.00
2023-01-07T19:30:59.741Z,10.23
2023-01-07T19:33:27.496Z,7.85
2023-01-07T19:36:09.281Z,10.15
2023-01-07T19:38:39.712Z,8.60
2023-01-07T19:41:08.101Z,9.23
2023-01-07T19:43:34.566Z,8.25
2023-01-07T19:46:00.960Z,10.63
2023-01-07T19:48:28.108Z,8.30
2023-01-07T19:50:59.311Z,8.88
2023-01-07T19:53:28.474Z,8.30
2023-01-07T19:55:59.268Z,9.52
2023-01-07T19:58:25.617Z,8.48
2023-01-07T20:00:52.105Z,8.75
2023-01-07T20:03:18.532Z,12.93
2023-01-07T20:05:44.902Z,13.63
2023-01-07T20:08:11.246Z,10.52
2023-01-07T20:10:37.596Z,10.52
2023-01-07T20:13:06.257Z,12.55
2023-01-07T20:15:32.660Z,11.13
2023-01-07T20:18:01.813Z,12.25
2023-01-07T20:20:28.158Z,10.75
2023-01-07T20:22:54.836Z,11.48
2023-01-07T20:25:21.453Z,13.00
2023-01-07T20:27:47.814Z,13.40
2023-01-07T20:30:14.258Z,12.48
2023-01-07T20:32:40.676Z,10.50
2023-01-07T20:35:07.773Z,8.65
2023-01-07T20:37:34.493Z,9.57
2023-01-07T20:40:00.911Z,8.57
2023-01-07T20:42:27.285Z,9.30
2023-01-07T20:44:53.696Z,8.15
2023-01-07T20:47:20.052Z,9.00
2023-01-07T20:49:46.401Z,18.25
2023-01-07T20:52:12.847Z,23.17
2023-01-07T20:54:39.723Z,22.55
2023-01-07T20:57:06.140Z,16.33
2023-01-07T20:59:32.479Z,10.80
2023-01-07T21:01:58.981Z,10.23
2023-01-07T21:04:28.837Z,9.18
2023-01-07T21:06:55.425Z,8.73
2023-01-07T21:09:21.817Z,8.82
2023-01-07T21:11:48.267Z,10.32
2023-01-07T21:14:14.605Z,11.57
2023-01-07T21:16:43.105Z,9.32
2023-01-07T21:19:09.609Z,9.32
2023-01-07T21:21:35.963Z,10.20
2023-01-07T21:24:02.373Z,9.93
2023-01-07T21:26:28.800Z,9.35
2023-01-07T21:28:58.952Z,8.88
2023-01-07T21:31:26.192Z,13.23
2023-01-07T21:33:54.199Z,12.20
2023-01-07T21:36:20.580Z,9.85
2023-01-07T21:38:52.499Z,8.43
2023-01-07T21:41:21.741Z,9.50
2023-01-07T21:43:51.437Z,9.77
2023-01-07T21:46:18.065Z,10.43
2023-01-07T21:48:46.814Z,9.60
2023-01-07T21:51:18.918Z,10.10
2023-01-07T21:53:45.753Z,10.48
2023-01-07T21:56:14.895Z,10.65
2023-01-07T21:58:47.359Z,11.40
2023-01-07T22:01:16.525Z,10.40
2023-01-07T22:03:46.015Z,10.45
2023-01-07T22:06:37.603Z,10.75
2023-01-07T22:09:06.187Z,13.30
2023-01-07T22:11:33.555Z,11.95
2023-01-07T22:14:00.222Z,10.55
2023-01-07T22:20:13.449Z,10.35
2023-01-07T22:22:39.859Z,10.70
2023-01-07T22:25:06.887Z,12.52
2023-01-07T22:27:33.215Z,14.13
2023-01-07T22:30:00.489Z,10.45
2023-01-07T22:32:26.895Z,10.60
2023-01-07T22:34:53.309Z,10.55
2023-01-07T22:37:20.987Z,12.05
2023-01-07T22:39:51.795Z,12.27
2023-01-07T22:42:22.084Z,10.50
2023-01-07T22:44:55.473Z,13.02
2023-01-07T22:47:26.179Z,13.85
2023-01-07T22:49:53.381Z,11.25
2023-01-07T22:52:19.758Z,11.50
2023-01-07T22:54:46.099Z,11.52
2023-01-07T22:57:13.045Z,11.10
2023-01-07T22:59:39.512Z,11.60
2023-01-07T23:02:06.160Z,12.02
2023-01-07T23:04:38.405Z,17.00
2023-01-07T23:07:04.858Z,11.68
2023-01-07T23:09:31.202Z,11.80
2023-01-07T23:12:00.468Z,12.52
2023-01-07T23:14:27.938Z,11.45
2023-01-07T23:16:54.835Z,12.43
2023-01-07T23:19:22.012Z,13.80
2023-01-07T23:21:51.533Z,12.90
2023-01-07T23:24:21.551Z,12.63
2023-01-07T23:26:52.062Z,12.88
2023-01-07T23:29:18.622Z,12.30
2023-01-07T23:31:45.075Z,10.90
2023-01-07T23:34:12.011Z,12.68
2023-01-07T23:36:38.916Z,11.75
2023-01-07T23:39:05.816Z,11.98
2023-01-07T23:41:32.654Z,12.23
2023-01-07T23:43:59.080Z,11.38
2023-01-07T23:46:25.508Z,12.48
2023-01-07T23:48:51.877Z,11.65
2023-01-07T23:51:19.915Z,11.35
2023-01-07T23:53:49.635Z,12.20
2023-01-07T23:56:20.122Z,12.43
2023-01-07T23:58:47.051Z,15.85
